sensor_id;sensor_type;location;lat;lon;timestamp;pressure;altitude;pressure_sealevel;temperature;humidity
31005;BME280;17676;52.254;4.490;2023-04-28T00:01:09;101246.41;;;11.45;100.00
31005;BME280;17676;52.254;4.490;2023-04-28T00:03:34;101243.69;;;11.39;100.00
31005;BME280;17676;52.254;4.490;2023-04-28T00:06:00;101241.63;;;11.41;100.00
31005;BME280;17676;52.254;4.490;2023-04-28T00:08:26;101235.31;;;11.27;100.00
31005;BME280;17676;52.254;4.490;2023-04-28T00:10:51;101229.50;;;11.30;100.00
31005;BME280;17676;52.254;4.490;2023-04-28T00:13:17;101231.97;;;11.25;100.00
31005;BME280;17676;52.254;4.490;2023-04-28T00:15:43;101222.16;;;11.24;100.00
31005;BME280;17676;52.254;4.490;2023-04-28T00:18:08;101205.91;;;11.24;100.00
31005;BME280;17676;52.254;4.490;2023-04-28T00:20:35;101206.16;;;11.36;100.00
31005;BME280;17676;52.254;4.490;2023-04-28T00:23:05;101205.72;;;11.26;100.00
31005;BME280;17676;52.254;4.490;2023-04-28T00:25:30;101206.97;;;11.30;100.00
31005;BME280;17676;52.254;4.490;2023-04-28T00:27:55;101201.97;;;11.33;100.00
31005;BME280;17676;52.254;4.490;2023-04-28T00:30:21;101195.09;;;11.31;100.00
31005;BME280;17676;52.254;4.490;2023-04-28T00:32:47;101198.66;;;11.31;100.00
31005;BME280;17676;52.254;4.490;2023-04-28T00:35:12;101194.88;;;11.32;100.00
31005;BME280;17676;52.254;4.490;2023-04-28T00:37:38;101183.84;;;11.27;100.00
31005;BME280;17676;52.254;4.490;2023-04-28T00:40:04;101180.25;;;11.20;100.00
31005;BME280;17676;52.254;4.490;2023-04-28T00:42:29;101176.94;;;11.18;100.00
31005;BME280;17676;52.254;4.490;2023-04-28T00:44:55;101182.34;;;11.18;100.00
31005;BME280;17676;52.254;4.490;2023-04-28T00:47:21;101179.19;;;11.08;100.00
31005;BME280;17676;52.254;4.490;2023-04-28T00:49:47;101180.41;;;10.99;100.00
31005;BME280;17676;52.254;4.490;2023-04-28T00:52:14;101168.72;;;10.99;100.00
31005;BME280;17676;52.254;4.490;2023-04-28T00:54:39;101167.06;;;10.98;100.00
31005;BME280;17676;52.254;4.490;2023-04-28T00:57:06;101168.53;;;11.00;100.00
31005;BME280;17676;52.254;4.490;2023-04-28T00:59:32;101166.47;;;11.02;100.00
31005;BME280;17676;52.254;4.490;2023-04-28T01:01:59;101166.50;;;11.09;100.00
31005;BME280;17676;52.254;4.490;2023-04-28T01:04:26;101158.38;;;11.09;100.00
31005;BME280;17676;52.254;4.490;2023-04-28T01:06:54;101151.50;;;11.13;100.00
31005;BME280;17676;52.254;4.490;2023-04-28T01:09:20;101147.72;;;11.07;100.00
31005;BME280;17676;52.254;4.490;2023-04-28T01:11:46;101153.16;;;11.07;100.00
31005;BME280;17676;52.254;4.490;2023-04-28T01:14:11;101142.50;;;10.99;100.00
31005;BME280;17676;52.254;4.490;2023-04-28T01:16:37;101148.13;;;11.04;100.00
31005;BME280;17676;52.254;4.490;2023-04-28T01:19:06;101138.97;;;11.12;100.00
31005;BME280;17676;52.254;4.490;2023-04-28T01:21:33;101145.44;;;11.17;100.00
31005;BME280;17676;52.254;4.490;2023-04-28T01:23:59;101130.22;;;11.03;100.00
31005;BME280;17676;52.254;4.490;2023-04-28T01:26:25;101138.16;;;11.11;100.00
31005;BME280;17676;52.254;4.490;2023-04-28T01:29:01;101135.66;;;11.16;100.00
31005;BME280;17676;52.254;4.490;2023-04-28T01:31:26;101129.56;;;11.01;100.00
31005;BME280;17676;52.254;4.490;2023-04-28T01:33:52;101126.06;;;11.14;100.00
31005;BME280;17676;52.254;4.490;2023-04-28T01:36:17;101122.72;;;11.05;100.00
31005;BME280;17676;52.254;4.490;2023-04-28T01:38:43;101113.31;;;11.01;100.00
31005;BME280;17676;52.254;4.490;2023-04-28T01:41:08;101114.34;;;10.94;100.00
31005;BME280;17676;52.254;4.490;2023-04-28T01:43:33;101112.25;;;10.96;100.00
31005;BME280;17676;52.254;4.490;2023-04-28T01:45:59;101115.22;;;11.01;100.00
31005;BME280;17676;52.254;4.490;2023-04-28T01:48:24;101123.16;;;11.09;100.00
31005;BME280;17676;52.254;4.490;2023-04-28T01:50:50;101112.31;;;11.02;100.00
31005;BME280;17676;52.254;4.490;2023-04-28T01:53:15;101111.28;;;11.10;100.00
31005;BME280;17676;52.254;4.490;2023-04-28T01:55:44;101104.38;;;11.07;100.00
31005;BME280;17676;52.254;4.490;2023-04-28T01:58:10;101097.31;;;11.06;100.00
31005;BME280;17676;52.254;4.490;2023-04-28T02:00:35;101095.22;;;11.08;100.00
31005;BME280;17676;52.254;4.490;2023-04-28T02:03:01;101101.69;;;11.07;100.00
31005;BME280;17676;52.254;4.490;2023-04-28T02:05:26;101106.88;;;11.02;100.00
31005;BME280;17676;52.254;4.490;2023-04-28T02:07:52;101097.06;;;11.01;100.00
31005;BME280;17676;52.254;4.490;2023-04-28T02:10:17;101093.94;;;10.98;100.00
31005;BME280;17676;52.254;4.490;2023-04-28T02:12:42;101084.97;;;10.97;100.00
31005;BME280;17676;52.254;4.490;2023-04-28T02:15:08;101088.53;;;10.91;100.00
31005;BME280;17676;52.254;4.490;2023-04-28T02:17:34;101076.44;;;10.87;100.00
31005;BME280;17676;52.254;4.490;2023-04-28T02:19:59;101057.25;;;10.82;100.00
31005;BME280;17676;52.254;4.490;2023-04-28T02:22:25;101057.28;;;11.02;100.00
31005;BME280;17676;52.254;4.490;2023-04-28T02:24:50;101059.34;;;10.93;100.00
31005;BME280;17676;52.254;4.490;2023-04-28T02:27:16;101043.09;;;10.93;100.00
31005;BME280;17676;52.254;4.490;2023-04-28T02:29:42;101051.47;;;10.98;100.00
31005;BME280;17676;52.254;4.490;2023-04-28T02:32:07;101045.41;;;10.96;100.00
31005;BME280;17676;52.254;4.490;2023-04-28T02:34:33;101038.31;;;10.82;100.00
31005;BME280;17676;52.254;4.490;2023-04-28T02:36:58;101035.59;;;10.82;100.00
31005;BME280;17676;52.254;4.490;2023-04-28T02:39:24;101022.25;;;10.81;100.00
31005;BME280;17676;52.254;4.490;2023-04-28T02:41:54;101032.69;;;10.90;100.00
31005;BME280;17676;52.254;4.490;2023-04-28T02:44:20;101020.41;;;10.94;100.00
31005;BME280;17676;52.254;4.490;2023-04-28T02:46:45;101030.59;;;10.92;100.00
31005;BME280;17676;52.254;4.490;2023-04-28T02:49:10;101027.69;;;10.87;100.00
31005;BME280;17676;52.254;4.490;2023-04-28T02:51:36;101017.66;;;10.81;100.00
31005;BME280;17676;52.254;4.490;2023-04-28T02:54:02;101017.66;;;10.81;100.00
31005;BME280;17676;52.254;4.490;2023-04-28T02:56:27;101008.53;;;10.82;100.00
31005;BME280;17676;52.254;4.490;2023-04-28T02:58:54;101008.94;;;10.79;100.00
31005;BME280;17676;52.254;4.490;2023-04-28T03:01:20;101003.50;;;10.66;100.00
31005;BME280;17676;52.254;4.490;2023-04-28T03:03:45;100987.47;;;10.71;100.00
31005;BME280;17676;52.254;4.490;2023-04-28T03:06:11;100993.09;;;10.76;100.00
31005;BME280;17676;52.254;4.490;2023-04-28T03:08:36;100984.34;;;10.74;100.00
31005;BME280;17676;52.254;4.490;2023-04-28T03:11:01;100985.19;;;10.81;100.00
31005;BME280;17676;52.254;4.490;2023-04-28T03:13:27;100975.19;;;10.82;100.00
31005;BME280;17676;52.254;4.490;2023-04-28T03:15:54;100967.28;;;10.80;100.00
31005;BME280;17676;52.254;4.490;2023-04-28T03:18:20;100968.91;;;10.68;100.00
31005;BME280;17676;52.254;4.490;2023-04-28T03:20:47;100972.69;;;10.80;100.00
31005;BME280;17676;52.254;4.490;2023-04-28T03:23:12;100966.84;;;10.70;100.00
31005;BME280;17676;52.254;4.490;2023-04-28T03:25:38;100957.88;;;10.63;100.00
31005;BME280;17676;52.254;4.490;2023-04-28T03:28:03;100954.56;;;10.68;100.00
31005;BME280;17676;52.254;4.490;2023-04-28T03:30:30;100960.78;;;10.62;100.00
31005;BME280;17676;52.254;4.490;2023-04-28T03:32:55;100963.09;;;10.71;100.00
31005;BME280;17676;52.254;4.490;2023-04-28T03:35:20;100955.19;;;10.76;100.00
31005;BME280;17676;52.254;4.490;2023-04-28T03:37:46;100946.47;;;10.74;100.00
31005;BME280;17676;52.254;4.490;2023-04-28T03:40:12;100949.34;;;10.60;100.00
31005;BME280;17676;52.254;4.490;2023-04-28T03:42:37;100944.78;;;10.73;100.00
31005;BME280;17676;52.254;4.490;2023-04-28T03:45:03;100942.28;;;10.72;100.00
31005;BME280;17676;52.254;4.490;2023-04-28T03:47:29;100939.97;;;10.56;100.00
31005;BME280;17676;52.254;4.490;2023-04-28T03:49:54;100946.66;;;10.66;100.00
31005;BME280;17676;52.254;4.490;2023-04-28T03:52:20;100932.69;;;10.56;100.00
31005;BME280;17676;52.254;4.490;2023-04-28T03:54:46;100951.00;;;10.54;100.00
31005;BME280;17676;52.254;4.490;2023-04-28T03:57:11;100947.25;;;10.55;100.00
31005;BME280;17676;52.254;4.490;2023-04-28T03:59:37;100946.41;;;10.61;100.00
31005;BME280;17676;52.254;4.490;2023-04-28T04:02:02;100949.16;;;10.68;100.00
31005;BME280;17676;52.254;4.490;2023-04-28T04:04:28;100951.88;;;10.74;100.00
31005;BME280;17676;52.254;4.490;2023-04-28T04:06:54;100958.53;;;10.72;100.00
31005;BME280;17676;52.254;4.490;2023-04-28T04:09:21;100945.16;;;10.57;100.00
31005;BME280;17676;52.254;4.490;2023-04-28T04:11:46;100945.59;;;10.67;100.00
31005;BME280;17676;52.254;4.490;2023-04-28T04:14:12;100948.72;;;10.58;100.00
31005;BME280;17676;52.254;4.490;2023-04-28T04:16:37;100944.75;;;10.47;100.00
31005;BME280;17676;52.254;4.490;2023-04-28T04:19:02;100937.66;;;10.46;100.00
31005;BME280;17676;52.254;4.490;2023-04-28T04:21:28;100953.06;;;10.52;100.00
31005;BME280;17676;52.254;4.490;2023-04-28T04:23:53;100943.50;;;10.56;100.00
31005;BME280;17676;52.254;4.490;2023-04-28T04:26:19;100953.72;;;10.54;100.00
31005;BME280;17676;52.254;4.490;2023-04-28T04:28:45;100961.00;;;10.60;100.00
31005;BME280;17676;52.254;4.490;2023-04-28T04:31:10;100958.50;;;10.59;100.00
31005;BME280;17676;52.254;4.490;2023-04-28T04:33:36;100957.25;;;10.61;100.00
31005;BME280;17676;52.254;4.490;2023-04-28T04:36:02;100956.00;;;10.57;100.00
31005;BME280;17676;52.254;4.490;2023-04-28T04:38:29;100950.81;;;10.69;100.00
31005;BME280;17676;52.254;4.490;2023-04-28T04:40:55;100946.44;;;10.68;100.00
31005;BME280;17676;52.254;4.490;2023-04-28T04:43:21;100947.03;;;10.50;100.00
31005;BME280;17676;52.254;4.490;2023-04-28T04:45:46;100945.97;;;10.32;100.00
31005;BME280;17676;52.254;4.490;2023-04-28T04:48:12;100931.34;;;10.13;100.00
31005;BME280;17676;52.254;4.490;2023-04-28T04:50:37;100908.34;;;9.96;100.00
31005;BME280;17676;52.254;4.490;2023-04-28T04:53:03;100882.09;;;9.77;100.00
31005;BME280;17676;52.254;4.490;2023-04-28T04:55:29;100852.50;;;9.62;100.00
31005;BME280;17676;52.254;4.490;2023-04-28T04:57:54;100818.56;;;9.47;100.00
31005;BME280;17676;52.254;4.490;2023-04-28T05:00:21;100792.13;;;9.36;100.00
31005;BME280;17676;52.254;4.490;2023-04-28T05:02:47;100783.16;;;9.22;100.00
31005;BME280;17676;52.254;4.490;2023-04-28T05:05:12;100784.09;;;9.02;100.00
31005;BME280;17676;52.254;4.490;2023-04-28T05:07:38;100788.63;;;8.95;100.00
31005;BME280;17676;52.254;4.490;2023-04-28T05:10:03;100798.81;;;8.99;100.00
31005;BME280;17676;52.254;4.490;2023-04-28T05:12:30;100832.00;;;8.93;100.00
31005;BME280;17676;52.254;4.490;2023-04-28T05:14:56;100828.47;;;8.93;100.00
31005;BME280;17676;52.254;4.490;2023-04-28T05:17:21;100838.88;;;8.96;100.00
31005;BME280;17676;52.254;4.490;2023-04-28T05:19:47;100834.16;;;9.04;100.00
31005;BME280;17676;52.254;4.490;2023-04-28T05:22:12;100841.41;;;9.04;100.00
31005;BME280;17676;52.254;4.490;2023-04-28T05:24:38;100829.31;;;9.00;100.00
31005;BME280;17676;52.254;4.490;2023-04-28T05:27:03;100843.31;;;9.10;100.00
31005;BME280;17676;52.254;4.490;2023-04-28T05:29:28;100848.97;;;9.21;100.00
31005;BME280;17676;52.254;4.490;2023-04-28T05:31:54;100862.28;;;9.23;100.00
31005;BME280;17676;52.254;4.490;2023-04-28T05:34:19;100873.88;;;9.10;100.00
31005;BME280;17676;52.254;4.490;2023-04-28T05:36:45;100866.72;;;9.03;100.00
31005;BME280;17676;52.254;4.490;2023-04-28T05:39:10;100875.94;;;9.15;100.00
31005;BME280;17676;52.254;4.490;2023-04-28T05:41:36;100861.72;;;9.27;100.00
31005;BME280;17676;52.254;4.490;2023-04-28T05:44:01;100876.53;;;9.44;100.00
31005;BME280;17676;52.254;4.490;2023-04-28T05:46:27;100873.88;;;9.51;100.00
31005;BME280;17676;52.254;4.490;2023-04-28T05:48:53;100887.59;;;9.56;100.00
31005;BME280;17676;52.254;4.490;2023-04-28T05:51:19;100897.41;;;9.57;100.00
31005;BME280;17676;52.254;4.490;2023-04-28T05:53:45;100901.97;;;9.63;100.00
31005;BME280;17676;52.254;4.490;2023-04-28T05:56:16;100896.59;;;9.69;100.00
31005;BME280;17676;52.254;4.490;2023-04-28T05:58:42;100898.69;;;9.67;100.00
31005;BME280;17676;52.254;4.490;2023-04-28T06:01:11;100902.03;;;9.76;100.00
31005;BME280;17676;52.254;4.490;2023-04-28T06:03:37;100901.69;;;9.92;100.00
31005;BME280;17676;52.254;4.490;2023-04-28T06:06:02;100902.13;;;9.89;100.00
31005;BME280;17676;52.254;4.490;2023-04-28T06:08:28;100901.69;;;9.92;100.00
31005;BME280;17676;52.254;4.490;2023-04-28T06:10:53;100899.19;;;9.90;100.00
31005;BME280;17676;52.254;4.490;2023-04-28T06:13:19;100875.88;;;9.83;100.00
31005;BME280;17676;52.254;4.490;2023-04-28T06:15:44;100878.06;;;10.07;100.00
31005;BME280;17676;52.254;4.490;2023-04-28T06:18:10;100866.41;;;10.06;100.00
31005;BME280;17676;52.254;4.490;2023-04-28T06:20:35;100883.09;;;10.23;100.00
31005;BME280;17676;52.254;4.490;2023-04-28T06:23:01;100877.66;;;10.10;100.00
31005;BME280;17676;52.254;4.490;2023-04-28T06:25:31;100867.06;;;10.15;100.00
31005;BME280;17676;52.254;4.490;2023-04-28T06:27:56;100885.81;;;10.36;100.00
31005;BME280;17676;52.254;4.490;2023-04-28T06:30:23;100873.53;;;10.27;100.00
31005;BME280;17676;52.254;4.490;2023-04-28T06:32:49;100872.69;;;10.20;100.00
31005;BME280;17676;52.254;4.490;2023-04-28T06:35:18;100870.63;;;10.35;100.00
31005;BME280;17676;52.254;4.490;2023-04-28T06:37:44;100857.50;;;10.32;100.00
31005;BME280;17676;52.254;4.490;2023-04-28T06:40:10;100861.91;;;10.46;100.00
31005;BME280;17676;52.254;4.490;2023-04-28T06:42:36;100865.22;;;10.48;100.00
31005;BME280;17676;52.254;4.490;2023-04-28T06:45:02;100858.56;;;10.44;100.00
31005;BME280;17676;52.254;4.490;2023-04-28T06:47:28;100870.22;;;10.58;100.00
31005;BME280;17676;52.254;4.490;2023-04-28T06:49:54;100866.06;;;10.55;100.00
31005;BME280;17676;52.254;4.490;2023-04-28T06:52:19;100873.34;;;10.61;100.00
31005;BME280;17676;52.254;4.490;2023-04-28T06:54:49;100858.16;;;10.54;100.00
31005;BME280;17676;52.254;4.490;2023-04-28T06:57:18;100862.75;;;10.60;100.00
31005;BME280;17676;52.254;4.490;2023-04-28T06:59:45;100872.53;;;10.67;100.00
31005;BME280;17676;52.254;4.490;2023-04-28T07:02:10;100863.16;;;10.57;100.00
31005;BME280;17676;52.254;4.490;2023-04-28T07:04:36;100865.88;;;10.57;100.00
31005;BME280;17676;52.254;4.490;2023-04-28T07:07:02;100854.84;;;10.58;100.00
31005;BME280;17676;52.254;4.490;2023-04-28T07:09:31;100851.91;;;10.73;100.00
31005;BME280;17676;52.254;4.490;2023-04-28T07:11:57;100864.59;;;10.85;100.00
31005;BME280;17676;52.254;4.490;2023-04-28T07:14:23;100854.41;;;10.87;100.00
31005;BME280;17676;52.254;4.490;2023-04-28T07:16:49;100852.75;;;10.80;100.00
31005;BME280;17676;52.254;4.490;2023-04-28T07:19:15;100844.41;;;10.94;100.00
31005;BME280;17676;52.254;4.490;2023-04-28T07:21:41;100843.16;;;10.90;100.00
31005;BME280;17676;52.254;4.490;2023-04-28T07:24:08;100848.13;;;10.93;100.00
31005;BME280;17676;52.254;4.490;2023-04-28T07:26:34;100852.31;;;10.89;100.00
31005;BME280;17676;52.254;4.490;2023-04-28T07:29:00;100857.94;;;10.75;100.00
31005;BME280;17676;52.254;4.490;2023-04-28T07:31:26;100852.72;;;10.73;100.00
31005;BME280;17676;52.254;4.490;2023-04-28T07:33:51;100865.44;;;10.79;100.00
31005;BME280;17676;52.254;4.490;2023-04-28T07:36:17;100874.56;;;11.11;100.00
31005;BME280;17676;52.254;4.490;2023-04-28T07:38:45;100868.78;;;10.94;100.00
31005;BME280;17676;52.254;4.490;2023-04-28T07:41:11;100871.88;;;10.98;100.00
31005;BME280;17676;52.254;4.490;2023-04-28T07:43:37;100877.72;;;11.14;100.00
31005;BME280;17676;52.254;4.490;2023-04-28T07:46:02;100871.03;;;11.10;100.00
31005;BME280;17676;52.254;4.490;2023-04-28T07:48:28;100861.66;;;11.13;100.00
31005;BME280;17676;52.254;4.490;2023-04-28T07:50:54;100864.38;;;11.06;100.00
31005;BME280;17676;52.254;4.490;2023-04-28T07:53:20;100873.13;;;11.08;100.00
31005;BME280;17676;52.254;4.490;2023-04-28T07:55:45;100856.03;;;11.01;100.00
31005;BME280;17676;52.254;4.490;2023-04-28T07:58:11;100853.34;;;11.14;100.00
31005;BME280;17676;52.254;4.490;2023-04-28T08:00:37;100851.63;;;11.26;100.00
31005;BME280;17676;52.254;4.490;2023-04-28T08:03:02;100861.22;;;11.22;100.00
31005;BME280;17676;52.254;4.490;2023-04-28T08:05:28;100851.63;;;11.26;100.00
31005;BME280;17676;52.254;4.490;2023-04-28T08:07:53;100864.31;;;11.32;100.00
31005;BME280;17676;52.254;4.490;2023-04-28T08:10:19;100869.34;;;11.16;100.00
31005;BME280;17676;52.254;4.490;2023-04-28T08:12:45;100856.69;;;11.03;100.00
31005;BME280;17676;52.254;4.490;2023-04-28T08:15:11;100860.84;;;11.06;100.00
31005;BME280;17676;52.254;4.490;2023-04-28T08:17:37;100853.72;;;11.24;100.00
31005;BME280;17676;52.254;4.490;2023-04-28T08:20:03;100853.28;;;11.34;100.00
31005;BME280;17676;52.254;4.490;2023-04-28T08:22:30;100864.72;;;11.36;100.00
31005;BME280;17676;52.254;4.490;2023-04-28T08:24:55;100858.94;;;11.19;100.00
31005;BME280;17676;52.254;4.490;2023-04-28T08:27:21;100849.13;;;11.25;100.00
31005;BME280;17676;52.254;4.490;2023-04-28T08:29:48;100856.41;;;11.31;100.00
31005;BME280;17676;52.254;4.490;2023-04-28T08:32:14;100860.97;;;11.43;100.00
31005;BME280;17676;52.254;4.490;2023-04-28T08:34:40;100864.53;;;11.31;100.00
31005;BME280;17676;52.254;4.490;2023-04-28T08:37:05;100859.06;;;11.50;100.00
31005;BME280;17676;52.254;4.490;2023-04-28T08:39:31;100864.69;;;11.49;100.00
31005;BME280;17676;52.254;4.490;2023-04-28T08:41:58;100874.88;;;11.53;100.00
31005;BME280;17676;52.254;4.490;2023-04-28T08:44:24;100860.91;;;11.56;100.00
31005;BME280;17676;52.254;4.490;2023-04-28T08:46:53;100854.63;;;11.62;100.00
31005;BME280;17676;52.254;4.490;2023-04-28T08:49:26;100866.69;;;11.79;100.00
31005;BME280;17676;52.254;4.490;2023-04-28T08:51:59;100863.41;;;11.64;100.00
31005;BME280;17676;52.254;4.490;2023-04-28T08:54:30;100877.56;;;11.66;100.00
31005;BME280;17676;52.254;4.490;2023-04-28T08:56:57;100867.09;;;11.76;100.00
31005;BME280;17676;52.254;4.490;2023-04-28T08:59:23;100861.06;;;11.74;100.00
31005;BME280;17676;52.254;4.490;2023-04-28T09:01:49;100852.88;;;11.87;100.00
31005;BME280;17676;52.254;4.490;2023-04-28T09:04:16;100865.38;;;11.88;100.00
31005;BME280;17676;52.254;4.490;2023-04-28T09:06:42;100859.41;;;12.11;100.00
31005;BME280;17676;52.254;4.490;2023-04-28T09:09:37;100859.59;;;12.16;100.00
31005;BME280;17676;52.254;4.490;2023-04-28T09:12:02;100865.59;;;12.24;100.00
31005;BME280;17676;52.254;4.490;2023-04-28T09:14:33;100848.09;;;12.20;100.00
31005;BME280;17676;52.254;4.490;2023-04-28T09:17:01;100856.28;;;12.14;100.00
31005;BME280;17676;52.254;4.490;2023-04-28T09:19:33;100848.41;;;12.06;100.00
31005;BME280;17676;52.254;4.490;2023-04-28T09:22:00;100856.19;;;12.27;100.00
31005;BME280;17676;52.254;4.490;2023-04-28T09:24:41;100863.44;;;12.33;100.00
31005;BME280;17676;52.254;4.490;2023-04-28T09:27:11;100843.84;;;12.31;100.00
31005;BME280;17676;52.254;4.490;2023-04-28T09:29:37;100841.97;;;12.31;100.00
31005;BME280;17676;52.254;4.490;2023-04-28T09:32:17;100850.81;;;12.20;100.00
31005;BME280;17676;52.254;4.490;2023-04-28T09:34:51;100838.78;;;12.10;100.00
31005;BME280;17676;52.254;4.490;2023-04-28T09:37:21;100845.84;;;12.11;100.00
31005;BME280;17676;52.254;4.490;2023-04-28T09:39:50;100847.16;;;12.33;100.00
31005;BME280;17676;52.254;4.490;2023-04-28T09:42:42;100842.97;;;12.61;100.00
31005;BME280;17676;52.254;4.490;2023-04-28T09:45:16;100842.03;;;12.49;100.00
31005;BME280;17676;52.254;4.490;2023-04-28T09:47:46;100845.53;;;12.25;100.00
31005;BME280;17676;52.254;4.490;2023-04-28T09:50:14;100824.09;;;12.17;100.00
31005;BME280;17676;52.254;4.490;2023-04-28T09:52:44;100811.97;;;12.20;100.00
31005;BME280;17676;52.254;4.490;2023-04-28T09:55:13;100817.56;;;12.31;100.00
31005;BME280;17676;52.254;4.490;2023-04-28T09:57:39;100827.50;;;12.37;100.00
31005;BME280;17676;52.254;4.490;2023-04-28T10:00:07;100826.19;;;12.46;100.00
31005;BME280;17676;52.254;4.490;2023-04-28T10:02:36;100834.84;;;12.61;100.00
31005;BME280;17676;52.254;4.490;2023-04-28T10:05:02;100814.34;;;12.65;100.00
31005;BME280;17676;52.254;4.490;2023-04-28T10:07:31;100813.75;;;12.81;100.00
31005;BME280;17676;52.254;4.490;2023-04-28T10:09:59;100821.97;;;12.99;100.00
31005;BME280;17676;52.254;4.490;2023-04-28T10:12:26;100807.50;;;13.05;99.06
31005;BME280;17676;52.254;4.490;2023-04-28T10:14:52;100802.13;;;13.17;95.72
31005;BME280;17676;52.254;4.490;2023-04-28T10:17:20;100812.94;;;13.23;93.46
31005;BME280;17676;52.254;4.490;2023-04-28T10:19:48;100825.31;;;13.37;91.31
31005;BME280;17676;52.254;4.490;2023-04-28T10:22:28;100827.44;;;13.53;88.98
31005;BME280;17676;52.254;4.490;2023-04-28T10:27:49;100821.09;;;13.41;88.09
31005;BME280;17676;52.254;4.490;2023-04-28T10:30:22;100826.38;;;13.36;87.27
31005;BME280;17676;52.254;4.490;2023-04-28T10:38:14;100818.06;;;13.49;81.65
31005;BME280;17676;52.254;4.490;2023-04-28T10:40:45;100818.50;;;13.64;78.44
31005;BME280;17676;52.254;4.490;2023-04-28T10:43:12;100822.72;;;13.78;75.54
31005;BME280;17676;52.254;4.490;2023-04-28T10:48:20;100814.78;;;13.77;70.18
31005;BME280;17676;52.254;4.490;2023-04-28T10:54:06;100815.03;;;13.39;67.37
31005;BME280;17676;52.254;4.490;2023-04-28T10:56:41;100815.19;;;13.26;65.54
31005;BME280;17676;52.254;4.490;2023-04-28T10:59:26;100814.69;;;13.18;63.87
31005;BME280;17676;52.254;4.490;2023-04-28T11:01:53;100793.00;;;13.11;61.11
31005;BME280;17676;52.254;4.490;2023-04-28T11:04:18;100795.13;;;13.09;59.19
31005;BME280;17676;52.254;4.490;2023-04-28T11:06:46;100794.75;;;13.06;57.10
31005;BME280;17676;52.254;4.490;2023-04-28T11:12:05;100805.03;;;13.22;52.52
31005;BME280;17676;52.254;4.490;2023-04-28T11:14:35;100802.06;;;13.23;51.08
31005;BME280;17676;52.254;4.490;2023-04-28T11:17:07;100787.72;;;12.98;49.71
31005;BME280;17676;52.254;4.490;2023-04-28T11:19:45;100796.13;;;12.90;47.85
31005;BME280;17676;52.254;4.490;2023-04-28T11:22:20;100790.47;;;12.92;47.12
31005;BME280;17676;52.254;4.490;2023-04-28T11:24:55;100797.16;;;12.71;47.21
31005;BME280;17676;52.254;4.490;2023-04-28T11:27:41;100801.84;;;12.82;46.98
31005;BME280;17676;52.254;4.490;2023-04-28T11:30:23;100794.16;;;12.79;47.28
31005;BME280;17676;52.254;4.490;2023-04-28T11:32:56;100790.03;;;12.70;46.94
31005;BME280;17676;52.254;4.490;2023-04-28T11:35:35;100797.09;;;12.78;46.45
31005;BME280;17676;52.254;4.490;2023-04-28T11:38:07;100783.66;;;12.83;45.75
31005;BME280;17676;52.254;4.490;2023-04-28T11:40:33;100783.75;;;12.76;45.97
31005;BME280;17676;52.254;4.490;2023-04-28T11:42:59;100813.38;;;13.02;45.72
31005;BME280;17676;52.254;4.490;2023-04-28T11:45:25;100811.09;;;12.99;45.91
31005;BME280;17676;52.254;4.490;2023-04-28T11:47:51;100815.72;;;12.99;46.38
31005;BME280;17676;52.254;4.490;2023-04-28T11:50:21;100830.06;;;12.81;46.45
31005;BME280;17676;52.254;4.490;2023-04-28T11:52:59;100827.50;;;12.86;46.35
31005;BME280;17676;52.254;4.490;2023-04-28T11:55:25;100839.59;;;12.90;46.60
31005;BME280;17676;52.254;4.490;2023-04-28T11:58:21;100844.53;;;13.00;46.39
31005;BME280;17676;52.254;4.490;2023-04-28T12:01:11;100852.03;;;13.04;47.76
31005;BME280;17676;52.254;4.490;2023-04-28T12:03:44;100843.59;;;13.12;47.63
31005;BME280;17676;52.254;4.490;2023-04-28T12:06:10;100842.47;;;13.38;47.45
31005;BME280;17676;52.254;4.490;2023-04-28T12:08:37;100845.25;;;13.49;48.10
31005;BME280;17676;52.254;4.490;2023-04-28T12:11:09;100835.81;;;13.16;49.01
31005;BME280;17676;52.254;4.490;2023-04-28T12:13:36;100834.53;;;13.36;48.61
31005;BME280;17676;52.254;4.490;2023-04-28T12:16:03;100840.44;;;13.33;48.67
31005;BME280;17676;52.254;4.490;2023-04-28T12:18:31;100850.84;;;13.36;48.70
31005;BME280;17676;52.254;4.490;2023-04-28T12:20:57;100850.84;;;13.36;48.72
31005;BME280;17676;52.254;4.490;2023-04-28T12:23:33;100855.69;;;13.52;48.61
31005;BME280;17676;52.254;4.490;2023-04-28T12:25:59;100849.50;;;13.45;48.92
31005;BME280;17676;52.254;4.490;2023-04-28T12:28:40;100854.75;;;13.04;49.91
31005;BME280;17676;52.254;4.490;2023-04-28T12:31:07;100845.25;;;13.31;49.13
31005;BME280;17676;52.254;4.490;2023-04-28T12:33:33;100859.91;;;13.12;49.50
31005;BME280;17676;52.254;4.490;2023-04-28T12:36:02;100854.88;;;13.34;49.06
31005;BME280;17676;52.254;4.490;2023-04-28T12:38:28;100852.72;;;13.36;49.15
31005;BME280;17676;52.254;4.490;2023-04-28T12:40:54;100875.16;;;13.31;49.34
31005;BME280;17676;52.254;4.490;2023-04-28T12:43:20;100862.03;;;13.28;49.44
31005;BME280;17676;52.254;4.490;2023-04-28T12:45:52;100851.88;;;13.35;49.27
31005;BME280;17676;52.254;4.490;2023-04-28T12:48:18;100868.44;;;13.34;49.50
31005;BME280;17676;52.254;4.490;2023-04-28T12:50:44;100869.06;;;13.11;50.21
31005;BME280;17676;52.254;4.490;2023-04-28T12:53:12;100876.94;;;13.19;50.15
31005;BME280;17676;52.254;4.490;2023-04-28T12:55:38;100877.06;;;13.06;50.33
31005;BME280;17676;52.254;4.490;2023-04-28T12:58:04;100882.38;;;13.19;49.97
31005;BME280;17676;52.254;4.490;2023-04-28T13:00:30;100893.88;;;13.21;50.05